createdAt,value
2023-10-29T00:00:06.528Z,16.80
2023-10-29T00:05:11.698Z,16.80
2023-10-29T00:10:13.644Z,16.80
2023-10-29T00:15:15.509Z,16.80
2023-10-29T00:20:17.410Z,16.80
2023-10-29T00:25:19.494Z,16.70
2023-10-29T00:30:21.683Z,16.80
2023-10-29T00:35:24.071Z,16.80
2023-10-29T00:40:31.836Z,16.80
2023-10-29T00:45:35.945Z,16.80
2023-10-29T00:50:37.922Z,16.80
2023-10-29T00:55:41.486Z,16.80
2023-10-29T01:00:43.759Z,16.80
2023-10-29T01:05:49.895Z,16.80
2023-10-29T01:10:52.628Z,16.80
2023-10-29T01:15:54.862Z,16.80
2023-10-29T01:20:57.678Z,16.80
2023-10-29T01:26:00.569Z,16.80
2023-10-29T01:31:02.482Z,16.80
2023-10-29T01:36:05.322Z,16.80
2023-10-29T01:41:07.531Z,16.80
2023-10-29T01:46:09.473Z,16.80
2023-10-29T01:51:11.349Z,16.80
2023-10-29T01:56:13.286Z,16.80
2023-10-29T02:01:15.160Z,16.80
2023-10-29T02:06:18.400Z,16.80
2023-10-29T02:11:20.297Z,16.80
2023-10-29T02:16:22.545Z,16.80
2023-10-29T02:21:25.557Z,16.80
2023-10-29T02:26:28.669Z,16.80
2023-10-29T02:31:30.700Z,16.80
2023-10-29T02:36:32.574Z,16.80
2023-10-29T02:41:34.562Z,16.80
2023-10-29T02:46:37.583Z,16.80
2023-10-29T02:51:39.443Z,16.80
2023-10-29T02:56:41.837Z,16.80
2023-10-29T03:01:43.931Z,16.80
2023-10-29T03:06:45.897Z,16.80
2023-10-29T03:11:47.823Z,16.80
2023-10-29T03:16:51.030Z,16.80
2023-10-29T03:21:53.027Z,16.80
2023-10-29T03:26:56.219Z,16.80
2023-10-29T03:31:58.239Z,16.80
2023-10-29T03:37:00.192Z,16.80
2023-10-29T03:42:03.848Z,16.80
2023-10-29T03:47:05.825Z,16.80
2023-10-29T03:52:07.722Z,16.80
2023-10-29T03:57:11.584Z,16.80
2023-10-29T04:02:13.447Z,16.80
2023-10-29T04:07:16.451Z,16.70
2023-10-29T04:12:18.316Z,16.80
2023-10-29T04:17:20.177Z,16.70
2023-10-29T04:22:23.781Z,16.70
2023-10-29T04:27:25.864Z,16.70
2023-10-29T04:32:27.897Z,16.70
2023-10-29T04:37:30.136Z,16.70
2023-10-29T04:42:31.977Z,16.70
2023-10-29T04:47:34.037Z,16.70
2023-10-29T04:52:36.013Z,16.70
2023-10-29T04:57:37.892Z,16.70
2023-10-29T05:02:39.989Z,16.70
2023-10-29T05:07:42.450Z,16.70
2023-10-29T05:12:44.654Z,16.70
2023-10-29T05:17:46.617Z,16.70
2023-10-29T05:22:48.596Z,16.70
2023-10-29T05:27:55.641Z,16.70
2023-10-29T05:32:57.672Z,16.80
2023-10-29T05:37:59.566Z,16.70
2023-10-29T05:43:01.487Z,16.70
2023-10-29T05:48:03.594Z,16.70
2023-10-29T05:53:05.604Z,16.70
2023-10-29T05:58:08.029Z,16.70
2023-10-29T06:03:09.997Z,16.70
2023-10-29T06:08:12.323Z,16.70
2023-10-29T06:13:14.346Z,16.70
2023-10-29T06:18:17.813Z,16.70
2023-10-29T06:23:19.748Z,16.70
2023-10-29T06:28:21.574Z,16.70
2023-10-29T06:33:23.504Z,16.70
2023-10-29T06:38:25.494Z,16.70
2023-10-29T06:43:27.941Z,16.70
2023-10-29T06:48:29.854Z,16.70
2023-10-29T06:53:31.777Z,16.70
2023-10-29T06:58:34.146Z,16.70
2023-10-29T07:03:37.442Z,16.70
2023-10-29T07:08:39.690Z,16.70
2023-10-29T07:13:42.503Z,16.70
2023-10-29T07:18:44.767Z,16.70
2023-10-29T07:23:46.759Z,16.70
2023-10-29T07:28:48.875Z,16.70
2023-10-29T07:33:52.879Z,16.70
2023-10-29T07:38:54.759Z,16.70
2023-10-29T07:43:56.606Z,16.70
2023-10-29T07:48:58.754Z,16.70
2023-10-29T07:54:01.301Z,16.70
2023-10-29T07:59:03.542Z,16.70
2023-10-29T08:04:05.623Z,16.70
2023-10-29T08:09:10.154Z,16.70
2023-10-29T08:14:12.090Z,16.70
2023-10-29T08:19:13.899Z,16.70
2023-10-29T08:24:15.725Z,16.70
2023-10-29T08:29:17.571Z,16.70
2023-10-29T08:34:19.509Z,16.70
2023-10-29T08:39:22.988Z,16.70
2023-10-29T08:44:24.886Z,16.70
2023-10-29T08:49:26.780Z,16.70
2023-10-29T08:54:28.719Z,16.70
2023-10-29T08:59:30.750Z,16.70
2023-10-29T09:04:37.968Z,16.70
2023-10-29T09:09:39.784Z,16.70
2023-10-29T09:14:41.725Z,16.70
2023-10-29T09:19:43.589Z,16.70
2023-10-29T09:24:45.390Z,16.70
2023-10-29T09:29:47.689Z,16.60
2023-10-29T09:34:49.728Z,16.60
2023-10-29T09:39:51.660Z,16.60
2023-10-29T09:44:58.054Z,16.70
2023-10-29T09:50:00.204Z,16.70
2023-10-29T09:55:04.100Z,16.60
2023-10-29T10:00:07.480Z,16.60
2023-10-29T10:05:19.326Z,16.60
2023-10-29T10:10:24.523Z,16.60
2023-10-29T10:15:26.631Z,16.60
2023-10-29T10:20:29.356Z,16.60
2023-10-29T10:25:32.618Z,16.60
2023-10-29T10:30:39.237Z,16.60
2023-10-29T10:35:48.073Z,16.60
2023-10-29T10:41:02.425Z,16.60
2023-10-29T10:46:06.530Z,16.60
2023-10-29T10:51:14.942Z,16.70
2023-10-29T10:56:17.674Z,16.70
2023-10-29T11:01:19.676Z,16.60
2023-10-29T11:06:22.644Z,16.70
2023-10-29T11:11:27.570Z,16.60
2023-10-29T11:16:29.518Z,16.60
2023-10-29T11:21:35.904Z,16.60
2023-10-29T11:26:37.844Z,16.60
2023-10-29T11:31:39.753Z,16.60
2023-10-29T11:36:44.242Z,16.60
2023-10-29T11:41:47.389Z,16.60
2023-10-29T11:47:04.526Z,16.60
2023-10-29T11:52:07.383Z,16.60
2023-10-29T11:57:10.159Z,16.70
2023-10-29T12:02:15.465Z,16.60
2023-10-29T12:07:27.633Z,16.60
2023-10-29T12:12:29.692Z,16.60
2023-10-29T12:17:31.547Z,16.70
2023-10-29T12:22:33.562Z,16.60
2023-10-29T12:27:40.390Z,16.60
2023-10-29T12:32:42.407Z,16.60
2023-10-29T12:37:53.338Z,16.60
2023-10-29T12:42:55.475Z,16.60
2023-10-29T12:48:16.478Z,16.60
2023-10-29T12:53:22.142Z,16.60
2023-10-29T12:58:24.624Z,16.60
2023-10-29T13:03:27.282Z,16.70
2023-10-29T13:08:29.216Z,16.60
2023-10-29T13:13:31.032Z,16.70
2023-10-29T13:18:33.017Z,16.60
2023-10-29T13:23:35.355Z,16.70
2023-10-29T13:28:37.232Z,16.70
2023-10-29T13:33:39.163Z,16.60
2023-10-29T13:38:41.149Z,16.70
2023-10-29T13:43:46.348Z,16.60
2023-10-29T13:48:53.452Z,16.60
2023-10-29T13:53:55.575Z,16.60
2023-10-29T13:58:57.425Z,16.70
2023-10-29T14:04:00.167Z,16.70
2023-10-29T14:09:03.295Z,16.70
2023-10-29T14:14:05.183Z,16.60
2023-10-29T14:19:07.919Z,16.60
2023-10-29T14:24:10.142Z,16.60
2023-10-29T14:29:12.136Z,16.70
2023-10-29T14:34:13.991Z,16.60
2023-10-29T14:39:16.730Z,16.70
2023-10-29T14:44:18.701Z,16.60
2023-10-29T14:49:20.612Z,16.60
2023-10-29T14:54:22.928Z,16.60
2023-10-29T14:59:24.838Z,16.60
2023-10-29T15:04:26.983Z,16.60
2023-10-29T15:09:28.894Z,16.70
2023-10-29T15:14:34.778Z,16.60
2023-10-29T15:19:37.435Z,16.60
2023-10-29T15:24:39.634Z,16.60
2023-10-29T15:29:42.768Z,16.60
2023-10-29T15:34:44.816Z,16.60
2023-10-29T15:39:46.926Z,16.70
2023-10-29T15:44:48.936Z,16.60
2023-10-29T15:49:54.224Z,16.60
2023-10-29T15:54:56.255Z,16.60
2023-10-29T15:59:58.468Z,16.60
2023-10-29T16:05:00.369Z,16.60
2023-10-29T16:10:02.389Z,16.60
2023-10-29T16:15:07.239Z,16.60
2023-10-29T16:20:09.521Z,16.60
2023-10-29T16:25:11.397Z,16.60
2023-10-29T16:30:16.170Z,16.60
2023-10-29T16:35:18.105Z,16.60
2023-10-29T16:40:19.927Z,16.60
2023-10-29T16:45:22.632Z,16.60
2023-10-29T16:50:24.537Z,16.60
2023-10-29T16:55:26.472Z,16.60
2023-10-29T17:00:28.531Z,16.60
2023-10-29T17:05:30.444Z,16.70
2023-10-29T17:10:32.336Z,16.60
2023-10-29T17:15:34.210Z,16.60
2023-10-29T17:20:36.126Z,16.60
2023-10-29T17:25:38.003Z,16.60
2023-10-29T17:30:39.912Z,16.70
2023-10-29T17:35:41.796Z,16.60
2023-10-29T17:40:43.914Z,16.60
2023-10-29T17:45:48.299Z,16.70
2023-10-29T17:50:57.674Z,16.70
2023-10-29T17:55:59.922Z,16.60
2023-10-29T18:01:01.761Z,16.60
2023-10-29T18:06:23.330Z,16.70
2023-10-29T18:11:27.495Z,16.60
2023-10-29T18:16:29.398Z,16.70
2023-10-29T18:21:32.081Z,16.60
2023-10-29T18:26:37.057Z,16.60
2023-10-29T18:31:39.463Z,16.60
2023-10-29T18:36:41.427Z,16.70
2023-10-29T18:41:43.242Z,16.70
2023-10-29T18:46:45.081Z,16.60
2023-10-29T18:51:47.178Z,16.70
2023-10-29T18:56:49.142Z,16.70
2023-10-29T19:01:51.082Z,16.70
2023-10-29T19:06:53.216Z,16.70
2023-10-29T19:11:55.057Z,16.80
2023-10-29T19:17:00.717Z,16.80
2023-10-29T19:22:02.612Z,16.80
2023-10-29T19:27:04.553Z,16.80
2023-10-29T19:32:06.726Z,16.80
2023-10-29T19:37:08.724Z,16.80
2023-10-29T19:42:11.922Z,16.80
2023-10-29T19:47:13.977Z,16.80
2023-10-29T19:52:16.802Z,16.80
2023-10-29T19:57:18.645Z,16.80
2023-10-29T20:02:20.661Z,16.80
2023-10-29T20:07:22.562Z,16.80
2023-10-29T20:12:24.584Z,16.90
2023-10-29T20:17:26.479Z,16.90
2023-10-29T20:22:28.323Z,16.90
2023-10-29T20:27:30.942Z,16.90
2023-10-29T20:32:32.886Z,16.90
2023-10-29T20:37:35.033Z,16.90
2023-10-29T20:42:36.891Z,16.90
2023-10-29T20:47:38.764Z,16.90
2023-10-29T20:52:40.762Z,17.00
2023-10-29T20:57:42.570Z,17.00
2023-10-29T21:02:44.756Z,16.90
2023-10-29T21:07:46.653Z,16.80
2023-10-29T21:12:48.489Z,16.70
2023-10-29T21:17:50.793Z,16.60
2023-10-29T21:22:52.909Z,16.60
2023-10-29T21:27:54.933Z,16.50
2023-10-29T21:32:57.427Z,16.50
2023-10-29T21:37:59.345Z,16.50
2023-10-29T21:43:01.313Z,16.50
2023-10-29T21:48:03.681Z,16.40
2023-10-29T21:53:05.747Z,16.50
2023-10-29T21:58:10.095Z,16.40
2023-10-29T22:03:12.377Z,16.40
2023-10-29T22:08:14.335Z,16.40
2023-10-29T22:13:17.635Z,16.40
2023-10-29T22:18:21.790Z,16.40
2023-10-29T22:23:24.068Z,16.40
2023-10-29T22:28:26.860Z,16.40
2023-10-29T22:33:33.725Z,16.40
2023-10-29T22:38:36.086Z,16.40
2023-10-29T22:43:38.124Z,16.40
2023-10-29T22:48:40.037Z,16.40
2023-10-29T22:53:42.348Z,16.40
2023-10-29T22:58:44.196Z,16.40
2023-10-29T23:03:46.182Z,16.40
2023-10-29T23:08:48.096Z,16.40
2023-10-29T23:13:50.001Z,16.40
2023-10-29T23:18:51.849Z,16.30
2023-10-29T23:23:55.500Z,16.40
2023-10-29T23:28:57.372Z,16.30
2023-10-29T23:33:59.208Z,16.30
2023-10-29T23:39:01.059Z,16.30
2023-10-29T23:44:03.893Z,16.30
2023-10-29T23:49:08.041Z,16.30
2023-10-29T23:54:10.018Z,16.30
2023-10-29T23:59:12.002Z,16.30
